Time;durP1;ratioP1;P1;durP2;ratioP2;P2;SDS_P1;SDS_P2;PMS_P1;PMS_P2;Temp;Humidity;BMP_temperature;BMP_pressure;BME280_temperature;BME280_humidity;BME280_pressure;Samples;Min_cycle;Max_cycle;Signal;HPM_P1;HPM_P2
2022/10/03 00:03:31;;;;;;;0.10;0.10;;;19.10;52.10;21.40;94557.00;;;;10460840;28;45228;-60
2022/10/03 00:09:14;;;;;;;0.30;0.10;;;19.10;52.10;21.40;94555.00;;;;10472555;28;45254;-60
2022/10/03 00:14:53;;;;;;;0.20;0.10;;;19.10;52.10;21.30;94555.00;;;;10474674;28;45179;-61
2022/10/03 00:20:46;;;;;;;0.10;0.10;;;19.10;52.10;21.30;94577.00;;;;10473867;28;45114;-61
2022/10/03 00:26:29;;;;;;;0.10;0.10;;;19.00;52.10;21.30;94575.00;;;;10464392;28;45599;-60
2022/10/03 00:32:02;;;;;;;0.77;0.22;;;19.00;52.20;21.30;94580.00;;;;10471118;28;45314;-61
2022/10/03 00:37:33;;;;;;;0.10;0.10;;;19.00;52.10;21.30;94589.00;;;;10472772;28;45253;-61
2022/10/03 00:43:26;;;;;;;0.20;0.10;;;19.00;52.10;21.30;94596.00;;;;10450872;28;45403;-61
2022/10/03 00:49:32;;;;;;;0.10;0.10;;;19.00;52.10;21.30;94592.00;;;;10461844;28;45240;-61
2022/10/03 00:55:10;;;;;;;0.22;0.10;;;19.00;52.10;21.30;94602.00;;;;10472283;28;45802;-61
2022/10/03 01:00:33;;;;;;;0.08;0.08;;;19.00;52.10;21.20;94588.00;;;;10466897;28;45305;-61
2022/10/03 01:06:18;;;;;;;0.35;0.10;;;19.00;52.20;21.30;94610.00;;;;10468570;28;45453;-61
2022/10/03 01:11:54;;;;;;;0.28;0.10;;;19.00;52.20;21.20;94599.00;;;;10471237;28;45316;-61
2022/10/03 01:17:23;;;;;;;0.22;0.10;;;19.00;52.20;21.20;94605.00;;;;10472371;28;45322;-61
2022/10/03 01:23:25;;;;;;;0.05;0.00;;;18.90;52.10;21.20;94613.00;;;;10470692;28;45198;-60
2022/10/03 01:34:41;;;;;;;0.20;0.10;;;18.90;52.10;21.20;94644.00;;;;10470792;28;45134;-61
2022/10/03 01:40:13;;;;;;;0.00;0.00;;;18.90;52.20;21.20;94640.00;;;;10430815;28;45259;-61
2022/10/03 01:45:46;;;;;;;0.05;0.00;;;18.90;52.10;21.20;94632.00;;;;10456238;28;45795;-61
2022/10/03 01:51:15;;;;;;;0.10;0.10;;;18.90;52.20;21.20;94633.00;;;;10429156;28;45177;-61
2022/10/03 01:56:43;;;;;;;0.20;0.10;;;18.90;52.10;21.20;94625.00;;;;10458098;28;45509;-61
2022/10/03 02:02:16;;;;;;;0.10;0.10;;;18.90;52.10;21.10;94654.00;;;;10463020;28;45410;-61
2022/10/03 02:07:47;;;;;;;0.00;0.00;;;18.90;52.20;21.10;94636.00;;;;10469119;28;45244;-61
2022/10/03 02:13:14;;;;;;;0.17;0.10;;;18.90;52.20;21.10;94658.00;;;;10436733;28;45192;-60
2022/10/03 02:18:46;;;;;;;0.45;0.10;;;18.80;52.10;21.10;94639.00;;;;10428029;28;45901;-61
2022/10/03 02:24:26;;;;;;;0.32;0.10;;;18.80;52.10;21.10;94630.00;;;;10456621;28;45384;-61
2022/10/03 02:30:18;;;;;;;0.35;0.20;;;18.90;52.20;21.10;94648.00;;;;10469141;28;45145;-61
2022/10/03 02:36:28;;;;;;;0.10;0.10;;;18.80;52.10;21.10;94643.00;;;;10469589;28;45216;-61
2022/10/03 02:42:53;;;;;;;0.10;0.10;;;18.90;52.20;21.10;94653.00;;;;10468802;28;45749;-61
2022/10/03 02:49:14;;;;;;;0.10;0.10;;;18.90;52.10;21.10;94646.00;;;;10441635;28;45221;-61
2022/10/03 02:55:00;;;;;;;0.10;0.10;;;18.80;52.20;21.10;94654.00;;;;10455944;28;45767;-61
2022/10/03 03:00:23;;;;;;;0.20;0.10;;;18.80;52.10;21.10;94649.00;;;;10468650;28;45198;-61
2022/10/03 03:06:51;;;;;;;0.10;0.10;;;18.80;52.10;21.10;94644.00;;;;10467630;28;45151;-61
2022/10/03 03:12:34;;;;;;;0.00;0.00;;;18.80;52.10;21.10;94636.00;;;;10456539;28;45218;-61
2022/10/03 03:18:05;;;;;;;0.20;0.10;;;18.70;52.10;21.00;94645.00;;;;10440826;28;45362;-61
2022/10/03 03:23:55;;;;;;;0.17;0.10;;;18.80;52.10;21.00;94647.00;;;;10440548;28;45492;-61
2022/10/03 03:29:27;;;;;;;0.00;0.00;;;18.80;52.20;21.00;94655.00;;;;10463762;28;45145;-61
2022/10/03 03:34:59;;;;;;;0.10;0.10;;;18.80;52.10;21.00;94657.00;;;;10474509;28;45193;-61
2022/10/03 03:40:38;;;;;;;0.30;0.10;;;18.80;52.10;21.00;94641.00;;;;10474518;28;45207;-61
2022/10/03 03:46:13;;;;;;;0.10;0.00;;;18.70;52.10;21.00;94651.00;;;;10474889;28;45431;-60
2022/10/03 03:51:45;;;;;;;0.08;0.08;;;18.70;52.10;21.00;94650.00;;;;10474584;28;45559;-60
2022/10/03 03:57:28;;;;;;;0.00;0.00;;;18.70;52.00;21.00;94643.00;;;;10474214;28;45202;-61
2022/10/03 04:03:17;;;;;;;0.05;0.00;;;18.70;52.10;21.00;94640.00;;;;10474467;28;45436;-61
2022/10/03 04:09:03;;;;;;;0.10;0.10;;;18.70;52.10;21.00;94626.00;;;;10472327;28;45242;-61
2022/10/03 04:15:09;;;;;;;0.00;0.00;;;18.80;52.00;21.10;94625.00;;;;10474213;28;45447;-60
2022/10/03 04:21:12;;;;;;;0.10;0.00;;;18.90;51.90;21.20;94632.00;;;;10473612;28;45290;-61
2022/10/03 04:26:50;;;;;;;0.10;0.00;;;19.00;51.80;21.20;94642.00;;;;10473008;28;45228;-61
2022/10/03 04:32:33;;;;;;;0.00;0.00;;;19.10;51.70;21.20;94633.00;;;;10472578;28;46038;-60
2022/10/03 04:38:10;;;;;;;0.25;0.10;;;19.10;51.90;21.30;94631.00;;;;10470937;28;45217;-60
2022/10/03 04:43:40;;;;;;;;;;;19.20;51.60;21.30;94633.00;;;;10473811;28;45222;-60
2022/10/03 04:49:11;;;;;;;0.35;0.08;;;19.20;51.50;21.40;94637.00;;;;10472157;28;45456;-61
2022/10/03 04:54:49;;;;;;;0.20;0.00;;;19.20;51.40;21.40;94637.00;;;;10472804;28;45187;-61
2022/10/03 05:00:23;;;;;;;0.00;0.00;;;19.30;51.40;21.40;94638.00;;;;10471529;28;45437;-61
2022/10/03 05:05:53;;;;;;;0.00;0.00;;;19.30;51.30;21.50;94637.00;;;;10465672;28;45671;-61
2022/10/03 05:11:28;;;;;;;0.00;0.00;;;19.30;51.30;21.50;94625.00;;;;10443414;28;45306;-60
2022/10/03 05:16:55;;;;;;;0.00;0.00;;;19.40;51.20;21.50;94633.00;;;;10429682;28;45824;-61
2022/10/03 05:22:32;;;;;;;0.00;0.00;;;19.40;51.20;21.50;94653.00;;;;10429091;28;45148;-61
2022/10/03 05:28:05;;;;;;;0.00;0.00;;;19.50;51.20;21.50;94659.00;;;;10461570;28;45226;-61
2022/10/03 05:33:39;;;;;;;0.10;0.00;;;19.40;51.20;21.60;94657.00;;;;10471462;28;45154;-61
2022/10/03 05:39:35;;;;;;;0.05;0.00;;;19.50;51.10;21.60;94677.00;;;;10470377;28;45181;-61
2022/10/03 05:45:04;;;;;;;0.00;0.00;;;19.50;51.10;21.60;94684.00;;;;10470517;28;45271;-62
2022/10/03 05:51:12;;;;;;;0.00;0.00;;;19.50;51.10;21.60;94677.00;;;;10470760;28;45297;-61
2022/10/03 05:57:26;;;;;;;0.17;0.00;;;19.50;51.00;21.70;94680.00;;;;10457801;28;45505;-61
2022/10/03 06:03:31;;;;;;;0.00;0.00;;;19.50;50.90;21.70;94679.00;;;;10456466;28;45261;-61
2022/10/03 06:09:28;;;;;;;0.00;0.00;;;19.60;51.00;21.70;94699.00;;;;10464002;28;45435;-61
2022/10/03 06:15:14;;;;;;;0.00;0.00;;;19.60;50.90;21.70;94701.00;;;;10470086;28;45864;-61
2022/10/03 06:21:19;;;;;;;0.00;0.00;;;19.60;50.90;21.80;94713.00;;;;10469385;28;45742;-61
2022/10/03 06:27:18;;;;;;;0.00;0.00;;;19.70;50.90;21.80;94717.00;;;;10468215;28;45332;-61
2022/10/03 06:33:16;;;;;;;0.10;0.10;;;19.70;50.90;21.80;94713.00;;;;10459855;28;46135;-61
2022/10/03 06:39:58;;;;;;;0.10;0.10;;;19.70;50.80;21.80;94722.00;;;;10468586;28;45141;-60
2022/10/03 06:45:59;;;;;;;0.10;0.10;;;19.70;50.80;21.80;94720.00;;;;10421033;28;45953;-61
2022/10/03 06:52:00;;;;;;;0.00;0.00;;;19.70;50.70;21.80;94739.00;;;;10426303;28;45233;-61
2022/10/03 06:57:41;;;;;;;0.20;0.15;;;19.70;50.70;21.80;94728.00;;;;10452942;28;45695;-61
2022/10/03 07:03:49;;;;;;;0.57;0.15;;;19.70;50.60;21.90;94741.00;;;;10456143;28;45801;-61
2022/10/03 07:09:53;;;;;;;;;;;19.70;50.60;21.90;94731.00;;;;10427758;28;45229;-60
2022/10/03 07:16:26;;;;;;;0.10;0.10;;;19.80;50.60;21.90;94742.00;;;;10470431;28;45665;-60
2022/10/03 07:22:23;;;;;;;0.25;0.20;;;19.70;50.60;21.90;94753.00;;;;10424011;28;45159;-61
2022/10/03 07:28:05;;;;;;;0.10;0.10;;;19.80;50.60;21.90;94747.00;;;;10475360;28;45207;-60
2022/10/03 07:34:10;;;;;;;0.20;0.20;;;19.80;50.60;21.90;94757.00;;;;10475164;28;45339;-60
2022/10/03 07:40:22;;;;;;;0.10;0.10;;;19.80;50.50;21.90;94778.00;;;;10473643;28;45845;-61
2022/10/03 07:45:47;;;;;;;0.20;0.10;;;19.80;50.50;21.90;94781.00;;;;10464922;28;45289;-61
2022/10/03 07:51:22;;;;;;;0.30;0.10;;;19.80;50.50;21.90;94771.00;;;;10432626;28;45746;-61
2022/10/03 07:57:15;;;;;;;0.55;0.20;;;19.80;50.50;21.90;94765.00;;;;10462916;28;45977;-61
2022/10/03 08:03:43;;;;;;;0.10;0.10;;;19.80;50.40;21.90;94782.00;;;;10435476;28;45749;-61
2022/10/03 08:09:33;;;;;;;0.13;0.13;;;19.80;50.40;22.00;94792.00;;;;10445923;28;45709;-61
2022/10/03 08:15:09;;;;;;;3.20;0.20;;;19.80;50.40;22.00;94789.00;;;;10473267;28;45254;-61
2022/10/03 08:20:42;;;;;;;0.28;0.20;;;19.80;50.40;22.00;94796.00;;;;10464597;28;45276;-61
2022/10/03 08:26:17;;;;;;;0.20;0.10;;;19.80;51.00;22.00;94790.00;;;;10456714;28;45507;-60
2022/10/03 08:32:37;;;;;;;0.32;0.20;;;19.80;50.30;22.00;94791.00;;;;10451945;28;45304;-60
2022/10/03 08:38:51;;;;;;;0.10;0.10;;;19.80;50.30;22.00;94811.00;;;;10432517;28;45713;-60
2022/10/03 08:45:00;;;;;;;0.10;0.10;;;19.90;50.30;22.00;94809.00;;;;10457038;28;45886;-60
2022/10/03 08:51:03;;;;;;;0.47;0.22;;;19.80;50.20;22.00;94804.00;;;;10438176;28;45679;-60
2022/10/03 08:56:39;;;;;;;1.33;0.30;;;19.80;50.20;22.00;94801.00;;;;10452292;28;45420;-60
2022/10/03 09:02:49;;;;;;;1.02;0.20;;;19.90;50.30;22.00;94772.00;;;;10464265;28;45492;-60
2022/10/03 09:09:13;;;;;;;0.10;0.10;;;19.90;50.20;22.00;94790.00;;;;10452830;28;45229;-61
2022/10/03 09:15:05;;;;;;;0.70;0.10;;;19.90;50.10;22.00;94777.00;;;;10450053;28;45276;-60
2022/10/03 09:21:05;;;;;;;0.20;0.10;;;19.90;50.10;22.00;94787.00;;;;10466621;28;45169;-61
2022/10/03 09:27:30;;;;;;;0.22;0.20;;;19.90;50.10;22.00;94774.00;;;;10449484;28;45223;-61
2022/10/03 09:33:54;;;;;;;0.32;0.10;;;19.90;50.10;22.00;94757.00;;;;10448090;28;45341;-60
2022/10/03 09:39:57;;;;;;;0.80;0.10;;;19.90;50.10;22.10;94774.00;;;;10468152;28;45999;-60
2022/10/03 09:45:56;;;;;;;0.60;0.10;;;19.90;50.00;22.00;94780.00;;;;10433860;28;45435;-61
2022/10/03 09:51:39;;;;;;;0.38;0.20;;;19.90;50.10;22.10;94782.00;;;;10426121;28;45382;-61
2022/10/03 09:57:56;;;;;;;0.68;0.20;;;19.90;50.00;22.10;94778.00;;;;10455921;28;45691;-60
2022/10/03 10:04:21;;;;;;;0.17;0.13;;;19.90;50.00;22.10;94768.00;;;;10452166;28;45246;-60
2022/10/03 10:10:15;;;;;;;0.25;0.10;;;19.90;50.00;22.10;94760.00;;;;10469918;28;45225;-60
2022/10/03 10:16:14;;;;;;;0.60;0.20;;;19.90;50.00;22.10;94764.00;;;;10469950;28;45422;-60
2022/10/03 10:22:21;;;;;;;0.40;0.10;;;19.90;49.90;22.10;94770.00;;;;10440413;28;45300;-60
2022/10/03 10:28:23;;;;;;;0.40;0.20;;;19.90;49.90;22.10;94751.00;;;;10458272;28;45511;-61
2022/10/03 10:34:36;;;;;;;0.63;0.20;;;19.90;49.90;22.10;94748.00;;;;10470826;28;45215;-61
2022/10/03 10:40:42;;;;;;;0.95;0.20;;;19.90;50.10;22.10;94757.00;;;;10477639;28;45184;-60
2022/10/03 10:47:04;;;;;;;0.45;0.10;;;19.90;50.10;22.10;94752.00;;;;10468505;28;45406;-62
2022/10/03 10:53:22;;;;;;;1.45;0.20;;;19.90;50.20;22.10;94736.00;;;;10446985;28;45186;-63
2022/10/03 10:59:37;;;;;;;0.70;0.40;;;19.90;50.40;22.10;94750.00;;;;10447541;28;45322;-61
2022/10/03 11:05:42;;;;;;;0.40;0.20;;;19.90;50.40;22.10;94755.00;;;;10465790;28;45741;-62
2022/10/03 11:11:42;;;;;;;0.25;0.20;;;19.90;50.50;22.10;94746.00;;;;10440040;28;45161;-61
2022/10/03 11:17:49;;;;;;;1.42;0.60;;;19.90;50.60;22.10;94731.00;;;;10446162;28;45264;-62
2022/10/03 11:23:49;;;;;;;0.32;0.20;;;19.90;50.60;22.10;94748.00;;;;10461154;28;45406;-62
2022/10/03 11:30:06;;;;;;;0.25;0.20;;;19.90;50.70;22.10;94728.00;;;;10449147;28;45247;-62
2022/10/03 11:35:57;;;;;;;0.60;0.20;;;19.90;50.70;22.10;94733.00;;;;10443567;28;45169;-62
2022/10/03 11:41:31;;;;;;;0.93;0.28;;;19.90;50.80;22.10;94741.00;;;;10468366;28;45260;-62
2022/10/03 11:47:17;;;;;;;0.52;0.22;;;19.90;50.80;22.10;94741.00;;;;10473276;28;45508;-61
2022/10/03 11:52:52;;;;;;;0.40;0.17;;;19.90;50.90;22.10;94739.00;;;;10471304;28;45855;-61
2022/10/03 11:58:35;;;;;;;0.40;0.25;;;19.90;50.90;22.10;94740.00;;;;10469644;28;45248;-60
2022/10/03 12:04:07;;;;;;;0.25;0.20;;;19.90;50.90;22.10;94739.00;;;;10474911;28;45726;-61
2022/10/03 12:09:38;;;;;;;0.50;0.20;;;19.90;51.00;22.10;94726.00;;;;10460445;28;45268;-61
2022/10/03 12:15:16;;;;;;;0.10;0.10;;;19.90;51.10;22.10;94728.00;;;;10465820;28;45231;-61
2022/10/03 12:21:05;;;;;;;0.40;0.20;;;19.90;51.30;22.10;94733.00;;;;10473387;28;45531;-61
2022/10/03 12:26:42;;;;;;;1.83;0.30;;;19.90;51.20;22.10;94733.00;;;;10473828;28;45460;-61
2022/10/03 12:32:28;;;;;;;0.57;0.15;;;19.90;51.20;22.10;94720.00;;;;10473152;28;45450;-61
2022/10/03 12:38:03;;;;;;;0.20;0.20;;;19.90;51.20;22.10;94711.00;;;;10438528;28;45126;-61
2022/10/03 12:43:41;;;;;;;0.30;0.25;;;19.90;51.20;22.10;94724.00;;;;10430693;28;45700;-61
2022/10/03 12:49:08;;;;;;;0.82;0.30;;;19.90;51.20;22.10;94714.00;;;;10459891;28;45442;-61
2022/10/03 12:54:46;;;;;;;1.23;0.30;;;19.90;51.30;22.10;94702.00;;;;10472072;28;45175;-61
2022/10/03 13:00:19;;;;;;;0.77;0.28;;;19.90;51.30;22.10;94714.00;;;;10464262;28;45185;-61
2022/10/03 13:06:06;;;;;;;0.30;0.25;;;19.90;52.00;22.10;94713.00;;;;10471487;28;45960;-61
2022/10/03 13:11:37;;;;;;;0.43;0.25;;;19.90;51.40;22.10;94709.00;;;;10440548;28;45185;-60
2022/10/03 13:17:12;;;;;;;0.20;0.20;;;19.90;51.40;22.10;94702.00;;;;10452493;28;45665;-61
2022/10/03 13:22:42;;;;;;;1.02;0.30;;;19.90;51.40;22.10;94695.00;;;;10456362;28;45297;-61
2022/10/03 13:28:14;;;;;;;0.43;0.20;;;19.90;51.50;22.10;94692.00;;;;10441992;28;45233;-61
2022/10/03 13:33:43;;;;;;;0.32;0.20;;;19.90;51.50;22.10;94673.00;;;;10452824;28;45316;-60
2022/10/03 13:39:20;;;;;;;1.08;0.20;;;19.90;51.50;22.10;94673.00;;;;10462436;28;45181;-60
2022/10/03 13:44:47;;;;;;;1.27;0.30;;;19.90;51.50;22.10;94680.00;;;;10429267;28;45872;-60
2022/10/03 13:50:17;;;;;;;0.68;0.20;;;19.90;51.50;22.10;94689.00;;;;10440278;28;46589;-60
2022/10/03 13:55:48;;;;;;;0.30;0.20;;;19.90;51.50;22.10;94667.00;;;;10428546;28;45199;-60
2022/10/03 14:01:39;;;;;;;0.50;0.20;;;19.90;51.50;22.10;94674.00;;;;10428862;28;45416;-60
2022/10/03 14:07:08;;;;;;;0.60;0.17;;;19.90;51.50;22.10;94670.00;;;;10428849;28;45789;-61
2022/10/03 14:12:44;;;;;;;0.77;0.30;;;19.90;51.50;22.10;94658.00;;;;10428360;28;45702;-60
2022/10/03 14:18:21;;;;;;;0.40;0.20;;;19.90;51.50;22.10;94654.00;;;;10460041;28;45198;-60
2022/10/03 14:23:49;;;;;;;1.35;0.30;;;19.90;51.50;22.10;94634.00;;;;10455303;28;45523;-60
2022/10/03 14:29:23;;;;;;;0.63;0.20;;;19.90;51.50;22.10;94651.00;;;;10456977;28;45687;-60
2022/10/03 14:34:53;;;;;;;0.50;0.35;;;19.90;51.50;22.10;94651.00;;;;10468000;28;45757;-60
2022/10/03 14:40:18;;;;;;;0.35;0.15;;;19.90;51.50;22.10;94648.00;;;;10471018;28;45232;-60
2022/10/03 14:45:48;;;;;;;0.40;0.30;;;19.90;51.60;22.10;94660.00;;;;10469617;28;45777;-60
2022/10/03 14:51:16;;;;;;;0.40;0.30;;;19.90;51.60;22.10;94664.00;;;;10468757;28;45125;-59
2022/10/03 14:56:44;;;;;;;0.52;0.30;;;19.90;51.60;22.10;94656.00;;;;10426510;28;45179;-60
2022/10/03 15:02:27;;;;;;;0.30;0.30;;;19.90;51.50;22.10;94654.00;;;;10427099;28;45399;-60
2022/10/03 15:07:48;;;;;;;0.38;0.30;;;19.90;51.60;22.10;94648.00;;;;10437377;28;45614;-60
2022/10/03 15:13:10;;;;;;;0.40;0.30;;;19.90;51.60;22.10;94653.00;;;;10465699;28;45819;-61
2022/10/03 15:18:33;;;;;;;0.47;0.20;;;19.90;51.50;22.10;94655.00;;;;10467753;28;45162;-59
2022/10/03 15:23:57;;;;;;;0.80;0.30;;;19.90;51.50;22.10;94653.00;;;;10475213;28;45875;-60
2022/10/03 15:29:21;;;;;;;1.10;0.30;;;19.90;51.50;22.10;94649.00;;;;10463428;28;45215;-60
2022/10/03 15:34:48;;;;;;;0.90;0.32;;;19.90;51.50;22.10;94640.00;;;;10475362;28;45146;-60
2022/10/03 15:40:21;;;;;;;0.55;0.30;;;19.90;51.50;22.10;94640.00;;;;10474482;28;45493;-62
2022/10/03 15:45:42;;;;;;;0.88;0.30;;;19.90;51.50;22.10;94645.00;;;;10474479;28;45832;-62
2022/10/03 15:51:15;;;;;;;0.70;0.30;;;19.90;51.50;22.10;94633.00;;;;10476078;28;45214;-61
2022/10/03 15:56:41;;;;;;;0.35;0.20;;;20.00;51.60;22.10;94627.00;;;;10474803;28;45177;-60
2022/10/03 16:02:09;;;;;;;0.40;0.20;;;20.00;51.50;22.10;94630.00;;;;10474789;28;45189;-62
2022/10/03 16:07:41;;;;;;;1.45;0.20;;;20.00;51.50;22.10;94625.00;;;;10473626;28;45853;-61
2022/10/03 16:13:18;;;;;;;0.52;0.30;;;20.00;51.50;22.10;94633.00;;;;10473305;28;45971;-62
2022/10/03 16:18:49;;;;;;;0.28;0.25;;;20.00;51.50;22.10;94638.00;;;;10473048;28;45720;-62
2022/10/03 16:24:33;;;;;;;0.40;0.20;;;20.00;51.40;22.10;94618.00;;;;10446808;28;45300;-61
2022/10/03 16:30:17;;;;;;;0.22;0.20;;;20.00;51.40;22.20;94638.00;;;;10472008;28;45251;-61
2022/10/03 16:35:44;;;;;;;0.80;0.30;;;20.00;51.40;22.10;94628.00;;;;10472617;28;45466;-61
2022/10/03 16:41:17;;;;;;;0.52;0.30;;;20.00;51.30;22.10;94624.00;;;;10459941;28;45229;-62
2022/10/03 16:46:40;;;;;;;5.00;0.25;;;20.00;51.30;22.20;94627.00;;;;10432619;28;45310;-61
2022/10/03 16:52:07;;;;;;;0.40;0.28;;;20.00;51.30;22.20;94630.00;;;;10468876;28;45614;-61
2022/10/03 16:57:38;;;;;;;1.05;0.40;;;20.00;51.30;22.20;94625.00;;;;10471909;28;45233;-62
2022/10/03 17:02:59;;;;;;;0.38;0.20;;;20.00;51.30;22.10;94625.00;;;;10472294;28;45176;-61
2022/10/03 17:08:26;;;;;;;0.40;0.30;;;20.00;51.90;22.20;94630.00;;;;10471487;28;46120;-61
2022/10/03 17:13:54;;;;;;;0.28;0.28;;;20.00;51.20;22.20;94627.00;;;;10471990;28;45691;-61
2022/10/03 17:19:21;;;;;;;0.70;0.28;;;20.00;51.20;22.20;94626.00;;;;10456850;28;45291;-61
2022/10/03 17:24:49;;;;;;;0.60;0.30;;;20.00;51.20;22.20;94632.00;;;;10436727;28;45488;-61
2022/10/03 17:30:27;;;;;;;0.65;0.22;;;20.10;51.20;22.20;94641.00;;;;10470374;28;45447;-61
2022/10/03 17:35:59;;;;;;;0.45;0.38;;;20.10;51.10;22.20;94642.00;;;;10471631;28;45184;-61
2022/10/03 17:41:27;;;;;;;0.30;0.25;;;20.10;51.10;22.20;94629.00;;;;10471869;28;45331;-61
2022/10/03 17:47:02;;;;;;;0.70;0.30;;;20.10;51.10;22.20;94643.00;;;;10472369;28;45331;-61
2022/10/03 17:52:24;;;;;;;0.15;0.15;;;20.10;51.10;22.20;94632.00;;;;10451242;28;45750;-61
2022/10/03 17:57:51;;;;;;;0.65;0.43;;;20.10;50.90;22.30;94634.00;;;;10429762;28;45964;-61
2022/10/03 18:03:22;;;;;;;0.70;0.40;;;20.20;50.90;22.30;94635.00;;;;10459252;28;45213;-61
2022/10/03 18:08:43;;;;;;;0.20;0.20;;;20.10;50.90;22.30;94630.00;;;;10472121;28;45194;-61
2022/10/03 18:14:15;;;;;;;0.32;0.20;;;20.10;50.80;22.30;94632.00;;;;10471227;28;45710;-61
2022/10/03 18:20:02;;;;;;;0.47;0.30;;;20.20;50.80;22.30;94620.00;;;;10458557;28;46262;-61
2022/10/03 18:31:12;;;;;;;0.70;0.30;;;20.20;50.80;22.30;94608.00;;;;10470164;28;45513;-61
2022/10/03 18:36:38;;;;;;;1.52;0.30;;;20.20;50.70;22.30;94615.00;;;;10471555;28;45219;-61
2022/10/03 18:42:02;;;;;;;0.77;0.40;;;20.20;50.70;22.30;94617.00;;;;10470206;28;45158;-61
2022/10/03 18:47:27;;;;;;;0.50;0.30;;;20.20;50.60;22.30;94619.00;;;;10471021;28;45195;-61
2022/10/03 18:52:53;;;;;;;0.40;0.30;;;20.20;50.60;22.30;94612.00;;;;10470683;28;45214;-61
2022/10/03 18:58:20;;;;;;;1.17;0.30;;;20.20;51.20;22.40;94621.00;;;;10476412;28;45218;-61
2022/10/03 19:03:47;;;;;;;0.45;0.20;;;20.20;50.50;22.40;94625.00;;;;10478466;28;45230;-61
2022/10/03 19:09:18;;;;;;;0.30;0.30;;;20.20;50.50;22.40;94607.00;;;;10477632;28;45860;-61
2022/10/03 19:14:54;;;;;;;0.30;0.20;;;20.20;50.30;22.40;94620.00;;;;10477443;28;45712;-61
2022/10/03 19:20:25;;;;;;;0.22;0.20;;;20.30;50.40;22.40;94620.00;;;;10468083;28;45256;-61
2022/10/03 19:25:55;;;;;;;0.65;0.40;;;20.20;50.20;22.40;94604.00;;;;10450397;28;45805;-61
2022/10/03 19:31:21;;;;;;;0.60;0.30;;;20.30;50.20;22.40;94603.00;;;;10476528;28;45497;-61
2022/10/03 19:36:42;;;;;;;0.50;0.30;;;20.30;50.20;22.40;94604.00;;;;10475496;28;45235;-61
2022/10/03 19:42:24;;;;;;;0.60;0.40;;;20.30;50.20;22.40;94615.00;;;;10476240;28;45936;-61
2022/10/03 19:47:51;;;;;;;0.95;0.47;;;20.30;50.20;22.40;94614.00;;;;10475627;28;45368;-61
2022/10/03 19:53:17;;;;;;;0.90;0.40;;;20.30;50.10;22.40;94615.00;;;;10474960;28;45180;-61
2022/10/03 19:58:40;;;;;;;0.60;0.40;;;20.30;50.10;22.50;94606.00;;;;10442280;28;45203;-61
2022/10/03 20:04:01;;;;;;;0.50;0.30;;;20.30;49.90;22.50;94601.00;;;;10433510;28;45200;-61
2022/10/03 20:09:25;;;;;;;0.30;0.22;;;20.30;50.00;22.50;94606.00;;;;10427683;28;45436;-61
2022/10/03 20:14:51;;;;;;;0.20;0.20;;;20.30;49.90;22.50;94600.00;;;;10448965;28;45323;-61
2022/10/03 20:20:18;;;;;;;1.02;0.40;;;20.30;49.90;22.40;94592.00;;;;10429299;28;45262;-61
2022/10/03 20:25:43;;;;;;;1.58;0.50;;;20.30;49.90;22.40;94601.00;;;;10447353;28;45230;-61
2022/10/03 20:31:06;;;;;;;0.28;0.28;;;20.20;49.80;22.40;94591.00;;;;10472893;28;45621;-61
2022/10/03 20:36:30;;;;;;;0.45;0.22;;;20.20;49.90;22.40;94583.00;;;;10473160;28;45542;-61
2022/10/03 20:42:00;;;;;;;0.88;0.47;;;20.20;49.90;22.30;94600.00;;;;10472847;28;45781;-61
2022/10/03 20:47:46;;;;;;;0.43;0.35;;;20.10;49.90;22.30;94588.00;;;;10473990;28;45106;-61
2022/10/03 20:53:17;;;;;;;0.73;0.40;;;20.00;50.00;22.20;94590.00;;;;10471891;28;45273;-61
2022/10/03 20:58:44;;;;;;;0.40;0.32;;;20.00;50.70;22.20;94595.00;;;;10439965;28;45473;-61
2022/10/03 21:04:10;;;;;;;;;;;20.00;50.00;22.20;94569.00;;;;10431600;28;45889;-61
2022/10/03 21:09:42;;;;;;;0.40;0.40;;;19.90;50.00;22.20;94584.00;;;;10443902;28;45213;-61
2022/10/03 21:15:10;;;;;;;0.43;0.40;;;19.90;50.00;22.10;94579.00;;;;10457589;28;45687;-61
2022/10/03 21:20:37;;;;;;;0.30;0.30;;;19.80;50.10;22.10;94577.00;;;;10471344;28;45324;-60
2022/10/03 21:26:00;;;;;;;0.40;0.35;;;19.80;50.00;22.10;94573.00;;;;10460412;28;45234;-61
2022/10/03 21:31:36;;;;;;;0.88;0.50;;;19.80;50.10;22.00;94561.00;;;;10471100;28;45737;-60
2022/10/03 21:37:16;;;;;;;0.30;0.30;;;19.80;50.10;22.00;94568.00;;;;10471727;28;45144;-61
2022/10/03 21:42:47;;;;;;;0.32;0.30;;;19.70;50.10;22.00;94567.00;;;;10470670;28;45664;-60
2022/10/03 21:48:20;;;;;;;1.48;0.55;;;19.70;50.10;22.00;94551.00;;;;10470667;28;45797;-61
2022/10/03 21:53:52;;;;;;;0.30;0.28;;;19.60;50.10;22.00;94562.00;;;;10471163;28;45257;-60
2022/10/03 21:59:47;;;;;;;0.52;0.35;;;19.60;50.10;21.90;94552.00;;;;10470101;28;45818;-61
2022/10/03 22:05:22;;;;;;;0.43;0.30;;;19.60;50.10;21.90;94562.00;;;;10470261;28;45699;-61
2022/10/03 22:11:02;;;;;;;0.45;0.30;;;19.60;50.80;21.90;94545.00;;;;10470284;28;45276;-61
2022/10/03 22:16:30;;;;;;;0.90;0.50;;;19.60;50.20;21.80;94551.00;;;;10451798;28;45292;-61
2022/10/03 22:22:22;;;;;;;0.60;0.43;;;19.60;50.20;21.80;94547.00;;;;10427899;28;45224;-60
2022/10/03 22:27:53;;;;;;;0.38;0.38;;;19.50;50.20;21.80;94525.00;;;;10455076;28;45206;-61
2022/10/03 22:33:22;;;;;;;0.47;0.40;;;19.50;50.20;21.80;94530.00;;;;10469953;28;45804;-60
2022/10/03 22:38:44;;;;;;;0.30;0.30;;;19.50;50.20;21.70;94503.00;;;;10468963;28;45289;-61
2022/10/03 22:44:10;;;;;;;0.82;0.60;;;19.40;50.20;21.70;94520.00;;;;10469319;28;45304;-61
2022/10/03 22:49:35;;;;;;;0.30;0.30;;;19.40;50.20;21.70;94509.00;;;;10469346;28;45225;-60
2022/10/03 22:54:57;;;;;;;1.42;0.50;;;19.40;50.20;21.70;94509.00;;;;10469078;28;45170;-60
2022/10/03 23:00:23;;;;;;;0.60;0.40;;;19.40;50.20;21.70;94504.00;;;;10469377;28;45254;-61
2022/10/03 23:06:39;;;;;;;0.57;0.30;;;19.30;50.20;21.60;94517.00;;;;10431797;28;45453;-60
2022/10/03 23:12:00;;;;;;;0.40;0.40;;;19.30;50.30;21.60;94502.00;;;;10462557;28;45198;-60
2022/10/03 23:17:52;;;;;;;0.73;0.30;;;19.30;51.00;21.60;94514.00;;;;10468137;28;45790;-60
2022/10/03 23:23:19;;;;;;;0.98;0.50;;;19.30;50.40;21.60;94515.00;;;;10469175;28;45524;-60
2022/10/03 23:28:59;;;;;;;0.32;0.32;;;19.20;50.30;21.60;94495.00;;;;10466723;28;45501;-60
2022/10/03 23:35:17;;;;;;;0.40;0.40;;;19.30;50.40;21.50;94493.00;;;;10468307;28;45258;-61
2022/10/03 23:40:44;;;;;;;0.80;0.30;;;19.20;50.40;21.50;94489.00;;;;10465262;28;45254;-61
2022/10/03 23:46:11;;;;;;;0.63;0.30;;;19.20;50.40;21.50;94480.00;;;;10433425;28;46051;-61
2022/10/03 23:51:35;;;;;;;0.65;0.40;;;19.20;50.40;21.50;94491.00;;;;10462404;28;45476;-61
2022/10/03 23:57:06;;;;;;;0.30;0.30;;;19.20;50.40;21.50;94474.00;;;;10474466;28;45523;-60
